Time;durP1;ratioP1;P1;durP2;ratioP2;P2;SDS_P1;SDS_P2;PMS_P1;PMS_P2;Temp;Humidity;BMP_temperature;BMP_pressure;BME280_temperature;BME280_humidity;BME280_pressure;Samples;Min_cycle;Max_cycle;Signal;HPM_P1;HPM_P2
2024/02/17 00:00:09;;;;;;;;;;;;;;;5.00;100.00;100412.38;5021128;28;19929;-83
2024/02/17 00:02:34;;;;;;;;;;;;;;;5.03;100.00;100427.25;5020017;28;20028;-89
2024/02/17 00:05:01;;;;;;;;;;;;;;;5.06;100.00;100429.84;5003662;28;19928;-89
2024/02/17 00:07:26;;;;;;;;;;;;;;;5.02;100.00;100430.75;5021190;28;19921;-83
2024/02/17 00:09:51;;;;;;;;;;;;;;;5.02;100.00;100436.00;5020917;28;20372;-81
2024/02/17 00:12:17;;;;;;;;;;;;;;;4.99;100.00;100436.88;5022530;28;19921;-86
2024/02/17 00:14:42;;;;;;;;;;;;;;;4.99;100.00;100436.03;5020704;28;19929;-86
2024/02/17 00:17:07;;;;;;;;;;;;;;;5.01;100.00;100445.63;5021542;28;20023;-85
2024/02/17 00:19:33;;;;;;;;;;;;;;;5.04;100.00;100444.72;5020482;28;19925;-84
2024/02/17 00:21:58;;;;;;;;;;;;;;;5.02;100.00;100450.00;5025269;28;19941;-87
2024/02/17 00:24:25;;;;;;;;;;;;;;;5.02;100.00;100455.25;5024822;28;20004;-87
2024/02/17 00:26:50;;;;;;;;;;;;;;;5.05;100.00;100449.09;5023905;28;19922;-90
2024/02/17 00:29:16;;;;;;;;;;;;;;;4.99;100.00;100457.03;5006775;28;19937;-91
2024/02/17 00:31:44;;;;;;;;;;;;;;;5.02;100.00;100464.88;5024516;28;19921;-83
2024/02/17 00:34:09;;;;;;;;;;;;;;;5.06;100.00;100462.22;5007250;28;19925;-87
2024/02/17 00:36:35;;;;;;;;;;;;;;;4.98;100.00;100465.78;5025833;28;19917;-90
2024/02/17 00:39:00;;;;;;;;;;;;;;;5.01;100.00;100476.28;5026429;28;19921;-90
2024/02/17 00:41:25;;;;;;;;;;;;;;;5.00;100.00;100474.53;5025148;28;19918;-82
2024/02/17 00:43:50;;;;;;;;;;;;;;;5.03;100.00;100480.63;5024304;28;19918;-85
2024/02/17 00:46:16;;;;;;;;;;;;;;;5.00;100.00;100474.53;5025483;28;20069;-86
2024/02/17 00:48:41;;;;;;;;;;;;;;;5.03;100.00;100480.63;5025459;28;20446;-89
2024/02/17 00:51:06;;;;;;;;;;;;;;;6.53;100.00;100484.13;5025893;28;19965;-86
2024/02/17 00:53:32;;;;;;;;;;;;;;;5.46;100.00;100479.34;5025119;28;19917;-83
2024/02/17 00:55:57;;;;;;;;;;;;;;;5.32;100.00;100476.00;5025060;28;19921;-80
2024/02/17 00:58:22;;;;;;;;;;;;;;;5.27;100.00;100491.81;5024482;28;19921;-82
2024/02/17 01:00:47;;;;;;;;;;;;;;;5.22;100.00;100489.22;5023004;28;19921;-81
2024/02/17 01:03:13;;;;;;;;;;;;;;;5.20;100.00;100498.88;5024915;28;20380;-83
2024/02/17 01:05:38;;;;;;;;;;;;;;;5.21;100.00;100500.59;5024654;28;19960;-84
2024/02/17 01:08:08;;;;;;;;;;;;;;;5.21;100.00;100503.22;5023994;28;19913;-81
2024/02/17 01:10:33;;;;;;;;;;;;;;;5.20;100.00;100509.41;5023423;28;19921;-82
2024/02/17 01:12:58;;;;;;;;;;;;;;;5.23;100.00;100508.47;5006718;28;20369;-85
2024/02/17 01:15:24;;;;;;;;;;;;;;;5.16;100.00;100518.19;5022835;28;19974;-86
2024/02/17 01:17:49;;;;;;;;;;;;;;;5.27;100.00;100518.94;5024643;28;20361;-83
2024/02/17 01:20:14;;;;;;;;;;;;;;;5.25;100.00;100523.34;5025252;28;20375;-85
2024/02/17 01:22:40;;;;;;;;;;;;;;;5.20;100.00;100525.16;5024430;28;20004;-84
2024/02/17 06:21:36;;;;;;;;;;;;;;;4.86;100.00;100877.31;5013558;28;19976;-86
2024/02/17 06:24:03;;;;;;;;;;;;;;;4.88;100.00;100885.19;5013412;28;19956;-84
2024/02/17 06:26:29;;;;;;;;;;;;;;;4.88;100.00;100886.09;5012674;28;20008;-85
2024/02/17 06:28:57;;;;;;;;;;;;;;;4.86;100.00;100882.56;5012572;28;20192;-85
2024/02/17 06:31:23;;;;;;;;;;;;;;;4.87;100.00;100884.34;5013075;28;20016;-87
2024/02/17 06:33:49;;;;;;;;;;;;;;;4.84;100.00;100891.34;4994503;28;20024;-85
2024/02/17 06:36:14;;;;;;;;;;;;;;;4.88;100.00;100900.97;5013148;28;19944;-86
2024/02/17 06:38:40;;;;;;;;;;;;;;;4.85;100.00;100901.84;4995610;28;19943;-86
2024/02/17 06:41:05;;;;;;;;;;;;;;;4.83;100.00;100900.97;4995295;28;19917;-84
2024/02/17 06:43:30;;;;;;;;;;;;;;;4.86;100.00;100906.22;5013010;28;19928;-86
2024/02/17 06:45:57;;;;;;;;;;;;;;;4.89;100.00;100907.97;5013010;28;20015;-83
2024/02/17 06:48:22;;;;;;;;;;;;;;;4.88;100.00;100917.63;5011915;28;20353;-81
2024/02/17 06:50:47;;;;;;;;;;;;;;;4.84;100.00;100921.09;5013016;28;19924;-83
2024/02/17 06:53:12;;;;;;;;;;;;;;;4.93;100.00;100922.88;5012851;28;19918;-82
2024/02/17 06:55:38;;;;;;;;;;;;;;;4.88;100.00;100928.13;4995285;28;19963;-82
2024/02/17 06:58:03;;;;;;;;;;;;;;;4.88;100.00;100933.38;5012845;28;20328;-85
2024/02/17 07:00:29;;;;;;;;;;;;;;;4.82;100.00;100943.88;5012814;28;20009;-88
2024/02/17 07:02:54;;;;;;;;;;;;;;;4.89;100.00;100936.88;5011427;28;20030;-86
2024/02/17 07:05:20;;;;;;;;;;;;;;;4.88;100.00;100949.13;5012714;28;19972;-87
2024/02/17 07:07:45;;;;;;;;;;;;;;;4.87;100.00;100950.00;5012746;28;19917;-84
2024/02/17 07:10:10;;;;;;;;;;;;;;;4.84;100.00;100957.88;4994992;28;20276;-87
2024/02/17 07:12:35;;;;;;;;;;;;;;;4.83;100.00;100965.75;5012652;28;20016;-84
2024/02/17 07:15:03;;;;;;;;;;;;;;;4.79;100.00;100964.88;5012479;28;19918;-84
2024/02/17 07:17:28;;;;;;;;;;;;;;;4.84;100.00;100968.38;5012200;28;20368;-85
2024/02/17 07:19:54;;;;;;;;;;;;;;;4.83;100.00;100969.25;4993600;28;19933;-86
2024/02/17 07:22:19;;;;;;;;;;;;;;;4.85;100.00;100974.50;5012299;28;20254;-85
2024/02/17 07:24:44;;;;;;;;;;;;;;;4.83;100.00;100978.88;5012523;28;19967;-84
2024/02/17 07:27:09;;;;;;;;;;;;;;;4.82;100.00;100978.03;5012201;28;19914;-83
2024/02/17 07:29:37;;;;;;;;;;;;;;;4.80;100.00;100977.13;5012374;28;19928;-84
2024/02/17 07:32:03;;;;;;;;;;;;;;;4.81;100.00;100981.50;5011117;28;20332;-83
2024/02/17 07:34:30;;;;;;;;;;;;;;;4.83;100.00;100985.00;5010967;28;19921;-85
2024/02/17 07:36:56;;;;;;;;;;;;;;;4.84;100.00;100993.78;5012369;28;20306;-84
2024/02/17 07:39:21;;;;;;;;;;;;;;;4.83;100.00;100992.88;5012223;28;19920;-85
2024/02/17 07:41:46;;;;;;;;;;;;;;;4.80;100.00;100992.00;5012218;28;20324;-85
2024/02/17 07:44:12;;;;;;;;;;;;;;;4.87;100.00;101005.16;5012183;28;19918;-86
2024/02/17 07:46:37;;;;;;;;;;;;;;;4.86;100.00;101003.38;5012163;28;19929;-84
2024/02/17 07:49:02;;;;;;;;;;;;;;;4.81;100.00;101010.41;5011018;28;19917;-87
2024/02/17 07:51:28;;;;;;;;;;;;;;;4.79;100.00;101014.78;5012088;28;20017;-87
2024/02/17 07:53:53;;;;;;;;;;;;;;;4.80;100.00;101019.13;5012270;28;19949;-84
2024/02/17 07:56:18;;;;;;;;;;;;;;;4.81;100.00;101023.53;5012053;28;19929;-86
2024/02/17 07:58:43;;;;;;;;;;;;;;;4.80;100.00;101029.66;4994472;28;20150;-83
2024/02/17 08:01:09;;;;;;;;;;;;;;;4.84;100.00;101046.31;4994324;28;19929;-85
2024/02/17 08:03:34;;;;;;;;;;;;;;;4.86;100.00;101050.66;5010801;28;20377;-86
2024/02/17 08:05:59;;;;;;;;;;;;;;;4.83;100.00;101050.66;5012004;28;20292;-86
2024/02/17 08:08:25;;;;;;;;;;;;;;;4.80;100.00;101057.66;5012047;28;19922;-84
2024/02/17 08:10:50;;;;;;;;;;;;;;;4.77;100.00;101061.19;5012344;28;19925;-87
2024/02/17 08:13:16;;;;;;;;;;;;;;;4.83;100.00;101071.66;5012036;28;20410;-87
2024/02/17 08:15:41;;;;;;;;;;;;;;;4.83;100.00;101073.44;5011915;28;19918;-86
2024/02/17 09:02:49;;;;;;;;;;;;;;;4.78;100.00;101120.69;5053979;23;19926;-80
2024/02/17 09:05:14;;;;;;;;;;;;;;;4.78;100.00;101123.31;5005196;28;19922;-79
2024/02/17 09:07:40;;;;;;;;;;;;;;;4.78;100.00;101127.69;5004638;28;19940;-81
2024/02/17 09:10:06;;;;;;;;;;;;;;;4.77;100.00;101132.09;5005476;28;19924;-82
2024/02/17 09:12:31;;;;;;;;;;;;;;;4.82;100.00;101137.31;5005302;28;19922;-86
2024/02/17 09:14:56;;;;;;;;;;;;;;;4.78;100.00;101127.69;5004793;28;20328;-82
2024/02/17 09:17:22;;;;;;;;;;;;;;;4.77;100.00;101134.72;4988832;28;20273;-86
2024/02/17 09:19:47;;;;;;;;;;;;;;;4.75;100.00;101125.94;5015318;28;20312;-85
2024/02/17 09:22:12;;;;;;;;;;;;;;;4.82;100.00;101127.72;5014478;28;19921;-84
2024/02/17 09:24:38;;;;;;;;;;;;;;;4.77;100.00;101132.09;4993020;28;19924;-85
2024/02/17 09:27:04;;;;;;;;;;;;;;;4.90;100.00;101138.25;5014532;28;19975;-80
2024/02/17 09:29:30;;;;;;;;;;;;;;;4.85;100.00;101143.47;5014472;28;19924;-85
2024/02/17 09:31:55;;;;;;;;;;;;;;;4.79;100.00;101146.09;5013127;28;20396;-85
2024/02/17 09:34:21;;;;;;;;;;;;;;;4.86;100.00;101153.09;5014443;28;19917;-83
2024/02/17 09:36:47;;;;;;;;;;;;;;;4.87;100.00;101156.63;5013424;28;20384;-84
2024/02/17 09:39:13;;;;;;;;;;;;;;;4.81;100.00;101157.47;5013531;28;19921;-86
2024/02/17 09:41:38;;;;;;;;;;;;;;;4.79;100.00;101153.97;5013952;28;19963;-92
2024/02/17 09:44:04;;;;;;;;;;;;;;;4.85;100.00;101158.34;4991514;28;19922;-79
2024/02/17 09:46:30;;;;;;;;;;;;;;;4.85;100.00;101159.25;5012983;28;19917;-81
2024/02/17 09:49:00;;;;;;;;;;;;;;;4.82;100.00;101163.59;4993026;28;19921;-80
2024/02/17 09:51:26;;;;;;;;;;;;;;;4.75;100.00;101170.56;5013694;28;19921;-81
2024/02/17 09:53:52;;;;;;;;;;;;;;;4.78;100.00;101170.59;5013512;28;19924;-81
2024/02/17 09:56:18;;;;;;;;;;;;;;;4.74;100.00;101171.47;5014015;28;19924;-79
2024/02/17 09:58:44;;;;;;;;;;;;;;;4.73;100.00;101175.81;5013879;28;19924;-82
2024/02/17 10:01:09;;;;;;;;;;;;;;;4.79;100.00;101174.97;5001995;28;19917;-81
2024/02/17 10:03:37;;;;;;;;;;;;;;;4.82;100.00;101174.09;4990298;28;19925;-80
2024/02/17 10:06:10;;;;;;;;;;;;;;;4.83;100.00;101175.84;5003416;28;19922;-84
2024/02/17 10:08:35;;;;;;;;;;;;;;;4.82;100.00;101182.88;5013167;28;19917;-81
2024/02/17 10:11:01;;;;;;;;;;;;;;;4.78;100.00;101188.97;5013458;28;19927;-80
2024/02/17 10:13:26;;;;;;;;;;;;;;;4.78;100.00;101194.22;5004026;28;19928;-81
2024/02/17 10:15:52;;;;;;;;;;;;;;;4.80;100.00;101192.47;5012235;28;19922;-82
2024/02/17 10:18:17;;;;;;;;;;;;;;;4.81;100.00;101210.00;4989126;28;19929;-85
2024/02/17 10:20:42;;;;;;;;;;;;;;;4.81;100.00;101209.13;4989495;28;19925;-80
2024/02/17 10:23:08;;;;;;;;;;;;;;;4.83;100.00;101208.25;4992360;28;19922;-82
2024/02/17 10:25:36;;;;;;;;;;;;;;;4.78;100.00;101220.47;5013523;28;19939;-78
2024/02/17 10:28:02;;;;;;;;;;;;;;;4.80;100.00;101223.97;5013087;28;20392;-83
2024/02/17 10:30:27;;;;;;;;;;;;;;;4.80;100.00;101221.34;5002524;28;19922;-85
2024/02/17 10:32:52;;;;;;;;;;;;;;;4.77;100.00;101221.38;4989135;28;19951;-84
2024/02/17 10:35:18;;;;;;;;;;;;;;;4.75;100.00;101223.09;4989206;28;19922;-83
2024/02/17 10:37:46;;;;;;;;;;;;;;;4.71;100.00;101230.09;5012991;28;19917;-82
2024/02/17 10:40:13;;;;;;;;;;;;;;;4.80;100.00;101223.13;5013248;28;19922;-78
2024/02/17 10:42:38;;;;;;;;;;;;;;;4.80;100.00;101223.97;5013173;28;19921;-83
2024/02/17 10:45:04;;;;;;;;;;;;;;;4.78;100.00;101231.00;4989450;28;20380;-81
2024/02/17 10:47:34;;;;;;;;;;;;;;;4.76;100.00;101231.88;5001882;28;19921;-85
2024/02/17 10:50:04;;;;;;;;;;;;;;;4.82;100.00;101231.88;5012318;28;19921;-80
2024/02/17 10:52:29;;;;;;;;;;;;;;;4.73;100.00;101240.59;5012398;28;20439;-80
2024/02/17 10:54:56;;;;;;;;;;;;;;;4.76;100.00;101229.25;5012774;28;19917;-78
2024/02/17 10:57:22;;;;;;;;;;;;;;;4.77;100.00;101233.59;5012995;28;19918;-80
2024/02/17 10:59:51;;;;;;;;;;;;;;;4.78;100.00;101227.50;5002749;28;20391;-81
2024/02/17 11:02:19;;;;;;;;;;;;;;;4.76;100.00;101222.22;4979996;28;19922;-81
2024/02/17 11:04:44;;;;;;;;;;;;;;;4.75;100.00;101224.84;4973230;28;19962;-79
2024/02/17 11:07:11;;;;;;;;;;;;;;;4.75;100.00;101223.09;4963984;28;19989;-82
2024/02/17 11:09:36;;;;;;;;;;;;;;;4.75;100.00;101215.22;4973553;28;19973;-81
2024/02/17 11:12:20;;;;;;;;;;;;;;;4.75;100.00;101219.59;4972365;28;20021;-87
2024/02/17 11:14:47;;;;;;;;;;;;;;;4.77;100.00;101210.88;4973624;28;20412;-84
2024/02/17 11:17:12;;;;;;;;;;;;;;;4.71;100.00;101216.09;4970805;28;19922;-83
2024/02/17 11:19:38;;;;;;;;;;;;;;;4.77;100.00;101216.13;4973593;28;19918;-84
2024/02/17 11:22:06;;;;;;;;;;;;;;;4.80;100.00;101207.34;4973412;28;19922;-78
2024/02/17 11:24:38;;;;;;;;;;;;;;;4.79;100.00;101203.00;4971752;28;20532;-81
2024/02/17 11:27:07;;;;;;;;;;;;;;;4.77;100.00;101212.59;4973441;28;20010;-85
2024/02/17 11:29:34;;;;;;;;;;;;;;;4.80;100.00;101204.72;4972718;28;19961;-82
2024/02/17 11:32:00;;;;;;;;;;;;;;;4.79;100.00;101201.25;4972082;28;19915;-83
2024/02/17 11:34:27;;;;;;;;;;;;;;;4.80;100.00;101202.97;4973408;28;20400;-85
2024/02/17 11:36:52;;;;;;;;;;;;;;;4.85;100.00;101200.38;4973331;28;20340;-84
2024/02/17 11:39:18;;;;;;;;;;;;;;;4.83;100.00;101195.09;4972013;28;19921;-82
2024/02/17 11:41:44;;;;;;;;;;;;;;;4.86;100.00;101192.50;4973140;28;20370;-87
2024/02/17 11:47:21;;;;;;;;;;;;;;;4.83;100.00;101192.47;4979640;28;19925;-84
2024/02/17 11:49:46;;;;;;;;;;;;;;;4.75;100.00;101191.59;4962357;28;19918;-81
2024/02/17 11:52:12;;;;;;;;;;;;;;;4.83;100.00;101197.72;4961892;28;19922;-82
2024/02/17 11:54:37;;;;;;;;;;;;;;;4.83;100.00;101191.63;4961977;28;19925;-81
2024/02/17 11:57:02;;;;;;;;;;;;;;;4.79;100.00;101190.75;4963849;28;19926;-81
2024/02/17 11:59:28;;;;;;;;;;;;;;;4.90;100.00;101196.03;4963650;28;19923;-87
2024/02/17 12:01:54;;;;;;;;;;;;;;;4.80;100.00;101200.34;4968539;28;19925;-80
2024/02/17 12:04:23;;;;;;;;;;;;;;;4.87;100.00;101196.88;4991449;28;19921;-78
2024/02/17 12:06:48;;;;;;;;;;;;;;;4.79;100.00;101197.75;5002280;28;20273;-79
2024/02/17 12:09:14;;;;;;;;;;;;;;;4.82;100.00;101193.38;5001829;28;19929;-80
2024/02/17 12:12:04;;;;;;;;;;;;;;;4.89;100.00;101189.00;5010636;28;19914;-83
2024/02/17 12:14:30;;;;;;;;;;;;;;;4.89;100.00;101196.88;4990137;28;19924;-80
2024/02/17 12:16:55;;;;;;;;;;;;;;;4.81;100.00;101201.25;5002524;28;19933;-84
2024/02/17 12:19:23;;;;;;;;;;;;;;;4.83;100.00;101208.25;5006189;28;20016;-83
2024/02/17 12:21:49;;;;;;;;;;;;;;;4.86;100.00;101200.38;5005767;28;19917;-80
2024/02/17 12:24:14;;;;;;;;;;;;;;;4.84;100.00;101202.13;5005478;28;19980;-82
2024/02/17 12:26:41;;;;;;;;;;;;;;;4.85;100.00;101206.53;5005835;28;20361;-81
2024/02/17 12:29:07;;;;;;;;;;;;;;;4.87;100.00;101210.00;4991797;28;19927;-82
2024/02/17 12:31:32;;;;;;;;;;;;;;;4.91;100.00;101209.16;5004512;28;20013;-80
2024/02/17 12:33:58;;;;;;;;;;;;;;;4.90;100.00;101211.78;5005549;28;19924;-77
2024/02/17 12:36:23;;;;;;;;;;;;;;;4.89;100.00;101212.66;5005714;28;19945;-81
2024/02/17 12:38:59;;;;;;;;;;;;;;;4.94;100.00;101207.41;4992232;28;19918;-82
2024/02/17 12:41:25;;;;;;;;;;;;;;;4.88;100.00;101211.78;5015148;28;20161;-82
2024/02/17 12:43:51;;;;;;;;;;;;;;;4.94;100.00;101210.03;4990521;28;20005;-85
2024/02/17 12:46:20;;;;;;;;;;;;;;;4.91;100.00;101210.91;5014056;28;19917;-80
2024/02/17 12:48:46;;;;;;;;;;;;;;;4.91;100.00;101219.69;5014306;28;19917;-81
2024/02/17 12:51:11;;;;;;;;;;;;;;;4.88;100.00;101218.75;5005617;28;19929;-84
2024/02/17 12:53:38;;;;;;;;;;;;;;;4.88;100.00;101216.13;4990621;28;19925;-81
2024/02/17 12:56:05;;;;;;;;;;;;;;;4.89;100.00;101218.78;4992798;28;19917;-83
2024/02/17 12:58:30;;;;;;;;;;;;;;;4.85;100.00;101226.63;5005542;28;19922;-80
2024/02/17 13:00:55;;;;;;;;;;;;;;;4.87;100.00;101220.53;5013660;28;19917;-79
2024/02/17 13:03:21;;;;;;;;;;;;;;;4.79;100.00;101227.50;5014855;28;19929;-79
2024/02/17 13:05:47;;;;;;;;;;;;;;;4.86;100.00;101226.63;5014230;28;19917;-79
2024/02/17 13:08:13;;;;;;;;;;;;;;;4.86;100.00;101231.88;5014795;28;19921;-81
2024/02/17 13:10:38;;;;;;;;;;;;;;;4.85;100.00;101231.88;5015067;28;19917;-81
2024/02/17 13:13:03;;;;;;;;;;;;;;;4.93;100.00;101229.28;5014757;28;19918;-80
2024/02/17 13:15:30;;;;;;;;;;;;;;;4.90;100.00;101236.28;5013488;28;19928;-79
2024/02/17 13:17:55;;;;;;;;;;;;;;;4.82;100.00;101224.00;5014540;28;19917;-78
2024/02/17 13:20:20;;;;;;;;;;;;;;;4.88;100.00;101217.03;5014505;28;20399;-80
2024/02/17 13:22:46;;;;;;;;;;;;;;;4.87;100.00;101228.41;5014499;28;20372;-79
2024/02/17 13:25:11;;;;;;;;;;;;;;;4.83;100.00;101236.25;4992887;28;20128;-80
2024/02/17 13:27:39;;;;;;;;;;;;;;;4.83;100.00;101237.13;5014283;28;19918;-78
2024/02/17 13:30:08;;;;;;;;;;;;;;;4.87;100.00;101236.28;4991887;28;19953;-80
2024/02/17 13:32:42;;;;;;;;;;;;;;;4.86;100.00;101238.91;5013049;28;20008;-83
2024/02/17 13:35:07;;;;;;;;;;;;;;;4.86;100.00;101229.25;5014392;28;20012;-80
2024/02/17 13:37:33;;;;;;;;;;;;;;;4.91;100.00;101227.56;5000502;28;20339;-79
2024/02/17 13:39:58;;;;;;;;;;;;;;;4.94;100.00;101220.56;5004740;28;19917;-79
2024/02/17 13:42:23;;;;;;;;;;;;;;;4.83;100.00;101231.88;5004454;28;19921;-80
2024/02/17 13:44:48;;;;;;;;;;;;;;;4.87;100.00;101223.16;4991331;28;19918;-80
2024/02/17 13:47:13;;;;;;;;;;;;;;;4.90;100.00;101220.53;5002716;28;20285;-78
2024/02/17 13:49:39;;;;;;;;;;;;;;;4.86;100.00;101231.03;5004741;28;19917;-78
2024/02/17 13:52:04;;;;;;;;;;;;;;;4.92;100.00;101220.53;4992830;28;20222;-84
2024/02/17 13:54:29;;;;;;;;;;;;;;;4.89;100.00;101218.78;5013910;28;20324;-82
2024/02/17 13:56:55;;;;;;;;;;;;;;;4.88;100.00;101219.66;5013888;28;19921;-80
2024/02/17 13:59:20;;;;;;;;;;;;;;;4.89;100.00;101220.53;5001998;28;19918;-78
2024/02/17 14:01:45;;;;;;;;;;;;;;;5.01;100.00;101224.94;4990817;28;19917;-81
2024/02/17 14:04:10;;;;;;;;;;;;;;;4.94;100.00;101226.66;5013792;28;20380;-84
2024/02/17 14:06:36;;;;;;;;;;;;;;;4.97;100.00;101225.81;5013826;28;19976;-84
2024/02/17 14:09:01;;;;;;;;;;;;;;;4.93;100.00;101221.41;5013762;28;19922;-81
2024/02/17 14:11:26;;;;;;;;;;;;;;;4.96;100.00;101229.31;5013626;28;19967;-80
2024/02/17 14:13:52;;;;;;;;;;;;;;;4.94;100.00;101234.53;5013862;28;19922;-84
2024/02/17 14:16:17;;;;;;;;;;;;;;;4.93;100.00;101231.91;5002326;28;19925;-84
2024/02/17 14:18:42;;;;;;;;;;;;;;;4.95;100.00;101238.06;4989578;28;19972;-84
2024/02/17 14:21:07;;;;;;;;;;;;;;;4.96;100.00;101231.94;5013387;28;19917;-85
2024/02/17 14:23:32;;;;;;;;;;;;;;;4.94;100.00;101228.44;5013475;28;20004;-84
2024/02/17 14:25:58;;;;;;;;;;;;;;;4.94;100.00;101220.56;5013434;28;19918;-87
2024/02/17 14:28:24;;;;;;;;;;;;;;;4.95;100.00;101232.81;5003812;28;19972;-86
2024/02/17 14:30:49;;;;;;;;;;;;;;;4.95;100.00;101231.06;4990106;28;20315;-84
2024/02/17 14:33:15;;;;;;;;;;;;;;;4.93;100.00;101237.16;5013088;28;19925;-85
2024/02/17 14:35:40;;;;;;;;;;;;;;;5.01;100.00;101231.09;5013622;28;20004;-82
2024/02/17 14:38:05;;;;;;;;;;;;;;;4.97;100.00;101231.06;5013271;28;19922;-85
2024/02/17 14:40:31;;;;;;;;;;;;;;;4.98;100.00;101227.53;5013100;28;20372;-83
2024/02/17 14:42:56;;;;;;;;;;;;;;;4.93;100.00;101224.03;5013102;28;20295;-85
2024/02/17 14:45:23;;;;;;;;;;;;;;;4.99;100.00;101221.44;5012656;28;20391;-83
2024/02/17 14:47:49;;;;;;;;;;;;;;;4.99;100.00;101224.94;5003012;28;20406;-85
2024/02/17 14:50:15;;;;;;;;;;;;;;;4.98;100.00;101222.28;4991305;28;19917;-85
2024/02/17 14:52:40;;;;;;;;;;;;;;;5.00;100.00;101231.94;5012934;28;20288;-83
2024/02/17 14:55:05;;;;;;;;;;;;;;;4.94;100.00;101229.28;5013112;28;20368;-83
2024/02/17 14:57:31;;;;;;;;;;;;;;;4.90;100.00;101225.78;5012863;28;19917;-83
2024/02/17 14:59:56;;;;;;;;;;;;;;;4.98;100.00;101231.06;5015540;28;19921;-84
2024/02/17 15:02:21;;;;;;;;;;;;;;;4.95;100.00;101231.06;5012708;28;20003;-85
2024/02/17 15:04:46;;;;;;;;;;;;;;;4.96;100.00;101230.16;4989834;28;19978;-78
2024/02/17 15:07:12;;;;;;;;;;;;;;;4.97;100.00;101221.44;5002963;28;19929;-82
2024/02/17 15:09:37;;;;;;;;;;;;;;;4.94;100.00;101225.81;5002856;28;20384;-86
2024/02/17 15:12:02;;;;;;;;;;;;;;;4.97;100.00;101217.94;5003522;28;19968;-85
2024/02/17 15:14:27;;;;;;;;;;;;;;;4.99;100.00;101221.44;5003325;28;19926;-84
2024/02/17 15:16:53;;;;;;;;;;;;;;;4.91;100.00;101216.16;5001137;28;20004;-86
2024/02/17 15:19:18;;;;;;;;;;;;;;;4.92;100.00;101228.41;5012427;28;20552;-82
2024/02/17 15:21:44;;;;;;;;;;;;;;;4.98;100.00;101232.81;5012400;28;20444;-85
2024/02/17 15:24:09;;;;;;;;;;;;;;;4.98;100.00;101232.81;4989932;28;19996;-81
2024/02/17 15:26:34;;;;;;;;;;;;;;;4.93;100.00;101224.94;4988901;28;20076;-89
2024/02/17 15:29:00;;;;;;;;;;;;;;;4.90;100.00;101230.19;5002533;28;20376;-86
2024/02/17 15:31:25;;;;;;;;;;;;;;;4.93;100.00;101237.16;4990140;28;19918;-84
2024/02/17 15:33:50;;;;;;;;;;;;;;;4.98;100.00;101227.53;5012712;28;19928;-80
2024/02/17 15:36:16;;;;;;;;;;;;;;;4.91;100.00;101229.28;5002358;28;19940;-84
2024/02/17 15:38:42;;;;;;;;;;;;;;;4.94;100.00;101225.81;5002012;28;19921;-82
2024/02/17 15:41:07;;;;;;;;;;;;;;;4.89;100.00;101234.53;4989689;28;20008;-78
2024/02/17 15:43:35;;;;;;;;;;;;;;;4.97;100.00;101246.84;5001822;28;19922;-84
2024/02/17 15:46:00;;;;;;;;;;;;;;;4.95;100.00;101235.44;5010167;28;19975;-79
2024/02/17 15:48:26;;;;;;;;;;;;;;;4.95;100.00;101238.94;5011787;28;19964;-79
2024/02/17 15:50:53;;;;;;;;;;;;;;;4.89;100.00;101245.03;5011986;28;20372;-80
2024/02/17 15:53:21;;;;;;;;;;;;;;;4.91;100.00;101251.19;5015424;28;20417;-88
2024/02/17 15:55:46;;;;;;;;;;;;;;;4.95;100.00;101235.44;5015860;28;19922;-85
2024/02/17 15:58:11;;;;;;;;;;;;;;;4.94;100.00;101238.94;4991638;28;19995;-78
2024/02/17 16:00:37;;;;;;;;;;;;;;;4.88;100.00;101251.19;4992715;28;20008;-80
2024/02/17 16:03:02;;;;;;;;;;;;;;;4.97;100.00;101246.84;5005991;28;20021;-85
2024/02/17 16:05:28;;;;;;;;;;;;;;;4.89;100.00;101252.91;4996300;28;19917;-80
2024/02/17 16:07:53;;;;;;;;;;;;;;;4.96;100.00;101266.06;5015893;28;19935;-85
2024/02/17 16:10:18;;;;;;;;;;;;;;;4.89;100.00;101260.78;5016077;28;20288;-84
2024/02/17 16:12:44;;;;;;;;;;;;;;;4.96;100.00;101266.94;5015813;28;19918;-81
2024/02/17 16:15:10;;;;;;;;;;;;;;;4.97;100.00;101267.84;5015895;28;19920;-86
2024/02/17 16:17:36;;;;;;;;;;;;;;;5.00;100.00;101266.09;4989432;28;20373;-83
2024/02/17 16:20:04;;;;;;;;;;;;;;;4.97;100.00;101265.22;5005921;28;19918;-88
2024/02/17 16:22:29;;;;;;;;;;;;;;;4.98;100.00;101265.22;4991538;28;19918;-82
2024/02/17 16:24:54;;;;;;;;;;;;;;;5.08;100.00;101266.13;4992604;28;20401;-86
2024/02/17 16:27:20;;;;;;;;;;;;;;;5.03;100.00;101267.88;4991666;28;19984;-87
2024/02/17 16:29:47;;;;;;;;;;;;;;;5.03;100.00;101263.47;4993692;28;19918;-90
2024/02/17 16:32:13;;;;;;;;;;;;;;;4.96;100.00;101271.34;5007006;28;20365;-83
2024/02/17 16:34:38;;;;;;;;;;;;;;;4.96;100.00;101273.97;4990808;28;19940;-89
2024/02/17 16:40:07;;;;;;;;;;;;;;;4.96;100.00;101279.22;5015294;28;19921;-86
2024/02/17 16:42:32;;;;;;;;;;;;;;;4.98;100.00;101272.22;5014335;28;19976;-85
2024/02/17 16:45:21;;;;;;;;;;;;;;;4.91;100.00;101280.09;5004851;28;19965;-84
2024/02/17 16:47:47;;;;;;;;;;;;;;;4.95;100.00;101278.34;5009144;28;20388;-84
2024/02/17 16:50:12;;;;;;;;;;;;;;;4.97;100.00;101279.22;5015375;28;19948;-83
2024/02/17 16:52:37;;;;;;;;;;;;;;;4.94;100.00;101275.72;4989586;28;20008;-84
2024/02/17 16:55:03;;;;;;;;;;;;;;;4.92;100.00;101280.97;4993183;28;20403;-82
2024/02/17 16:57:28;;;;;;;;;;;;;;;4.96;100.00;101292.34;5005228;28;19969;-84
2024/02/17 16:59:54;;;;;;;;;;;;;;;4.96;100.00;101298.47;5014190;28;20008;-84
2024/02/17 17:02:19;;;;;;;;;;;;;;;4.95;100.00;101307.25;5013372;28;19925;-84
2024/02/17 17:04:44;;;;;;;;;;;;;;;4.94;100.00;101301.97;5013560;28;20082;-86
2024/02/17 17:07:10;;;;;;;;;;;;;;;4.98;100.00;101308.97;5014715;28;19914;-82
2024/02/17 17:09:38;;;;;;;;;;;;;;;4.95;100.00;101302.00;4991483;28;20435;-84
2024/02/17 17:12:04;;;;;;;;;;;;;;;4.93;100.00;101297.59;5014731;28;19917;-85
2024/02/17 17:14:30;;;;;;;;;;;;;;;4.91;100.00;101303.72;5014627;28;19924;-83
2024/02/17 17:16:56;;;;;;;;;;;;;;;4.93;100.00;101308.09;5013205;28;20284;-83
2024/02/17 17:19:21;;;;;;;;;;;;;;;4.93;100.00;101314.25;5014773;28;19913;-85
2024/02/17 17:21:46;;;;;;;;;;;;;;;4.97;100.00;101315.13;5014638;28;19925;-83
2024/02/17 17:24:11;;;;;;;;;;;;;;;4.93;100.00;101321.22;5014416;28;19929;-85
2024/02/17 17:26:37;;;;;;;;;;;;;;;4.96;100.00;101324.75;4990947;28;19917;-86
2024/02/17 17:29:02;;;;;;;;;;;;;;;4.90;100.00;101317.72;5014380;28;20004;-85
2024/02/17 17:31:49;;;;;;;;;;;;;;;4.92;100.00;101325.63;4989388;28;20497;-90
2024/02/17 17:34:15;;;;;;;;;;;;;;;4.90;100.00;101324.75;5014372;28;19972;-84
2024/02/17 17:36:41;;;;;;;;;;;;;;;4.90;100.00;101322.13;4990623;28;20312;-84
2024/02/17 17:39:06;;;;;;;;;;;;;;;4.95;100.00;101319.50;4991729;28;19917;-83
2024/02/17 17:41:31;;;;;;;;;;;;;;;4.92;100.00;101328.25;5013972;28;19925;-82
2024/02/17 17:43:56;;;;;;;;;;;;;;;4.90;100.00;101328.22;5014965;28;19917;-83
2024/02/17 17:46:22;;;;;;;;;;;;;;;4.89;100.00;101326.47;4992508;28;19921;-82
2024/02/17 17:48:50;;;;;;;;;;;;;;;4.88;100.00;101336.97;5013294;28;19921;-82
2024/02/17 17:51:15;;;;;;;;;;;;;;;4.84;100.00;101333.44;5004103;28;20109;-83
2024/02/17 17:53:43;;;;;;;;;;;;;;;4.87;100.00;101335.22;5003983;28;20032;-85
2024/02/17 17:56:11;;;;;;;;;;;;;;;4.85;100.00;101337.84;5003991;28;19996;-90
2024/02/17 17:58:37;;;;;;;;;;;;;;;4.88;100.00;101336.97;5004591;28;19924;-83
2024/02/17 18:01:02;;;;;;;;;;;;;;;4.90;100.00;101333.47;4993145;28;19922;-85
2024/02/17 18:03:30;;;;;;;;;;;;;;;4.84;100.00;101337.84;4990620;28;19932;-86
2024/02/17 18:05:55;;;;;;;;;;;;;;;4.82;100.00;101336.94;4989263;28;19966;-82
2024/02/17 18:08:23;;;;;;;;;;;;;;;4.82;100.00;101343.06;4992175;28;19957;-83
2024/02/17 18:10:49;;;;;;;;;;;;;;;4.77;100.00;101339.56;5013656;28;19918;-83
2024/02/17 18:13:15;;;;;;;;;;;;;;;4.77;100.00;101344.81;5013725;28;19940;-84
2024/02/17 18:15:40;;;;;;;;;;;;;;;4.82;100.00;101344.81;5011642;28;19992;-87